createdAt,value
2019-04-06T00:03:52.031Z,33.93
2019-04-06T00:08:55.326Z,35.37
2019-04-06T00:13:59.155Z,38.20
2019-04-06T00:19:02.991Z,37.93
2019-04-06T00:24:06.810Z,36.57
2019-04-06T00:29:10.955Z,33.93
2019-04-06T00:34:15.393Z,37.80
2019-04-06T00:39:19.521Z,33.33
2019-04-06T00:44:23.362Z,39.03
2019-04-06T00:49:27.182Z,40.13
2019-04-06T00:54:31.312Z,38.73
2019-04-06T00:59:35.161Z,38.20
2019-04-06T01:04:39.280Z,41.27
2019-04-06T01:09:43.110Z,45.10
2019-04-06T01:14:46.936Z,43.97
2019-04-06T01:19:51.070Z,39.50
2019-04-06T01:24:54.897Z,37.20
2019-04-06T01:29:59.036Z,40.67
2019-04-06T01:35:02.870Z,36.63
2019-04-06T01:40:07.620Z,38.10
2019-04-06T01:45:11.436Z,35.20
2019-04-06T01:50:15.262Z,37.30
2019-04-06T01:55:19.093Z,34.30
2019-04-06T02:00:22.917Z,36.57
2019-04-06T02:05:27.056Z,34.47
2019-04-06T02:10:30.881Z,37.07
2019-04-06T02:15:34.706Z,38.23
2019-04-06T02:20:38.539Z,31.60
2019-04-06T02:25:42.685Z,31.20
2019-04-06T02:31:03.395Z,33.90
2019-04-06T02:36:21.056Z,31.13
2019-04-06T02:41:43.093Z,35.87
2019-04-06T02:46:47.135Z,33.17
2019-04-06T02:51:51.275Z,35.07
2019-04-06T02:56:55.097Z,40.73
2019-04-06T03:01:58.926Z,37.87
2019-04-06T03:07:02.755Z,35.67
2019-04-06T03:12:06.583Z,35.53
2019-04-06T03:17:10.723Z,36.70
2019-04-06T03:22:14.855Z,36.60
2019-04-06T03:27:18.778Z,32.83
2019-04-06T03:32:22.819Z,39.07
2019-04-06T03:37:26.639Z,38.10
2019-04-06T03:42:30.466Z,34.93
2019-04-06T03:47:34.302Z,36.77
2019-04-06T03:52:38.432Z,35.87
2019-04-06T03:57:42.566Z,37.00
2019-04-06T04:02:46.401Z,35.23
2019-04-06T04:07:50.220Z,36.70
2019-04-06T04:12:54.355Z,37.30
2019-04-06T04:17:58.188Z,32.43
2019-04-06T04:23:02.046Z,38.73
2019-04-06T04:28:06.155Z,38.27
2019-04-06T04:33:09.976Z,37.07
2019-04-06T04:38:13.809Z,37.20
2019-04-06T04:43:17.943Z,36.20
2019-04-06T04:48:21.763Z,37.43
2019-04-06T04:53:25.594Z,33.80
2019-04-06T04:58:29.426Z,36.93
2019-04-06T05:03:33.455Z,34.87
2019-04-06T05:08:37.387Z,39.20
2019-04-06T05:13:41.268Z,42.97
2019-04-06T05:18:45.349Z,44.47
2019-04-06T05:23:50.744Z,51.60
2019-04-06T05:28:54.536Z,47.67
2019-04-06T05:33:58.472Z,52.33
2019-04-06T05:39:02.521Z,46.90
2019-04-06T05:44:06.641Z,45.57
2019-04-06T05:49:10.460Z,43.33
2019-04-06T05:54:14.361Z,44.17
2019-04-06T05:59:18.424Z,50.00
2019-04-06T06:04:22.254Z,44.33
2019-04-06T06:09:26.084Z,51.83
2019-04-06T06:14:29.908Z,43.33
2019-04-06T06:19:33.905Z,45.73
2019-04-06T06:24:37.868Z,39.70
2019-04-06T06:29:41.696Z,42.40
2019-04-06T06:34:45.525Z,45.10
2019-04-06T06:39:49.357Z,39.70
2019-04-06T06:44:53.491Z,36.53
2019-04-06T06:49:57.626Z,40.17
2019-04-06T06:55:01.358Z,37.63
2019-04-06T07:00:05.987Z,41.80
2019-04-06T07:05:09.704Z,46.00
2019-04-06T07:10:13.447Z,43.20
2019-04-06T07:15:17.126Z,45.27
2019-04-06T07:20:20.872Z,54.67
2019-04-06T07:25:24.815Z,41.60
2019-04-06T07:30:28.653Z,30.03
2019-04-06T07:35:32.615Z,29.50
2019-04-06T07:40:36.347Z,58.10
2019-04-06T07:45:40.115Z,95.53
2019-04-06T07:50:43.889Z,61.40
2019-04-06T07:55:47.577Z,61.40
2019-04-06T08:00:51.353Z,65.70
2019-04-06T08:05:55.438Z,183.77
2019-04-06T08:10:59.317Z,57.67
2019-04-06T08:16:03.376Z,64.93
2019-04-06T08:21:07.446Z,54.10
2019-04-06T08:26:11.275Z,77.50
2019-04-06T08:31:15.141Z,63.93
2019-04-06T08:36:19.011Z,57.67
2019-04-06T08:41:23.083Z,53.00
2019-04-06T08:46:26.819Z,53.10
2019-04-06T08:51:30.520Z,53.53
2019-04-06T08:56:34.547Z,53.97
2019-04-06T09:01:38.369Z,82.27
2019-04-06T09:06:42.197Z,46.43
2019-04-06T09:11:46.070Z,44.23
2019-04-06T09:16:50.473Z,37.20
2019-04-06T09:21:54.350Z,35.60
2019-04-06T09:26:58.437Z,31.13
2019-04-06T09:32:02.260Z,26.53
2019-04-06T09:37:06.399Z,28.67
2019-04-06T09:42:10.234Z,35.13
2019-04-06T09:47:15.684Z,29.23
2019-04-06T09:52:37.393Z,31.93
2019-04-06T09:57:48.748Z,31.03
2019-04-06T10:02:54.105Z,21.53
2019-04-06T10:08:05.580Z,58.43
2019-04-06T10:13:16.812Z,18.83
2019-04-06T10:18:34.167Z,23.97
2019-04-06T10:23:39.524Z,15.27
2019-04-06T10:28:51.063Z,51.47
2019-04-06T10:34:08.944Z,18.10
2019-04-06T10:39:20.274Z,71.53
2019-04-06T10:44:37.844Z,55.80
2019-04-06T10:49:49.396Z,15.73
2019-04-06T10:55:04.238Z,28.37
2019-04-06T11:00:25.479Z,68.60
2019-04-06T11:05:42.506Z,19.80
2019-04-06T11:10:51.107Z,32.90
2019-04-06T11:15:56.728Z,28.67
2019-04-06T11:21:18.060Z,22.33
2019-04-06T11:26:26.500Z,20.67
2019-04-06T11:31:37.979Z,14.83
2019-04-06T11:36:59.650Z,13.37
2019-04-06T11:42:05.204Z,9.20
2019-04-06T11:47:13.779Z,15.67
2019-04-06T11:52:31.141Z,23.93
2019-04-06T11:57:42.299Z,25.83
2019-04-06T12:02:50.132Z,45.83
2019-04-06T12:07:55.486Z,28.20
2019-04-06T12:13:06.684Z,38.10
2019-04-06T12:18:12.359Z,25.80
2019-04-06T12:23:36.115Z,22.83
2019-04-06T12:28:41.827Z,31.23
2019-04-06T12:33:53.335Z,46.27
2019-04-06T12:39:14.121Z,45.13
2019-04-06T12:44:37.851Z,71.13
2019-04-06T12:49:46.592Z,55.50
2019-04-06T12:54:54.640Z,49.50
2019-04-06T13:00:06.187Z,38.40
2019-04-06T13:05:20.510Z,48.73
2019-04-06T13:10:25.871Z,57.57
2019-04-06T13:15:36.760Z,116.97
2019-04-06T13:20:58.779Z,87.37
2019-04-06T13:26:07.062Z,53.00
2019-04-06T13:31:21.322Z,54.13
2019-04-06T13:36:32.936Z,87.33
2019-04-06T13:41:50.273Z,66.60
2019-04-06T13:47:12.548Z,53.37
2019-04-06T13:52:18.521Z,42.43
2019-04-06T13:57:27.236Z,49.07
2019-04-06T14:02:38.465Z,53.83
2019-04-06T14:07:59.184Z,52.00
2019-04-06T14:13:16.923Z,63.37
2019-04-06T14:18:38.789Z,54.80
2019-04-06T14:23:50.819Z,45.53
2019-04-06T14:29:05.492Z,50.87
2019-04-06T14:34:27.278Z,45.90
2019-04-06T14:39:48.626Z,34.87
2019-04-06T14:44:59.708Z,43.70
2019-04-06T14:50:07.521Z,54.67
2019-04-06T14:55:24.576Z,47.70
2019-04-06T15:00:29.857Z,35.87
2019-04-06T15:05:52.424Z,47.07
2019-04-06T15:10:59.815Z,96.77
2019-04-06T15:16:05.085Z,74.23
2019-04-06T15:21:13.358Z,140.43
2019-04-06T15:26:18.663Z,68.53
2019-04-06T15:31:24.544Z,106.40
2019-04-06T15:36:33.269Z,78.73
2019-04-06T15:41:54.750Z,81.23
2019-04-06T15:47:03.323Z,70.23
2019-04-06T15:52:12.559Z,74.63
2019-04-06T15:57:18.547Z,72.07
2019-04-06T16:02:38.974Z,94.10
2019-04-06T16:08:00.766Z,83.70
2019-04-06T16:13:21.333Z,93.63
2019-04-06T16:18:43.686Z,107.10
2019-04-06T16:24:01.711Z,80.13
2019-04-06T16:29:04.617Z,106.93
2019-04-06T16:34:09.937Z,130.77
2019-04-06T16:39:18.404Z,77.97
2019-04-06T16:44:29.408Z,73.63
2019-04-06T16:49:46.946Z,88.47
2019-04-06T16:55:01.258Z,99.67
2019-04-06T17:00:18.496Z,127.07
2019-04-06T17:05:23.829Z,109.90
2019-04-06T17:10:29.186Z,90.13
2019-04-06T17:15:43.627Z,80.97
2019-04-06T17:20:51.995Z,75.57
2019-04-06T17:26:09.937Z,65.97
2019-04-06T17:31:33.432Z,64.43
2019-04-06T17:36:39.101Z,87.70
2019-04-06T17:42:00.525Z,105.30
2019-04-06T17:47:22.102Z,101.80
2019-04-06T17:52:43.989Z,122.10
2019-04-06T17:58:01.455Z,94.73
2019-04-06T18:03:07.032Z,84.27
2019-04-06T18:08:12.416Z,96.57
2019-04-06T18:13:35.730Z,116.90
2019-04-06T18:18:39.460Z,128.27
2019-04-06T18:23:43.787Z,110.40
2019-04-06T18:28:47.546Z,99.33
2019-04-06T18:33:51.274Z,118.50
2019-04-06T18:39:09.367Z,132.07
2019-04-06T18:44:13.107Z,125.50
2019-04-06T18:49:17.061Z,124.53
2019-04-06T18:54:20.997Z,115.73
2019-04-06T18:59:24.864Z,119.13
2019-04-06T19:04:29.252Z,123.57
2019-04-06T19:09:33.789Z,128.17
2019-04-06T19:14:37.610Z,135.80
2019-04-06T19:19:41.363Z,128.63
2019-04-06T19:24:45.156Z,113.50
2019-04-06T19:29:48.990Z,98.97
2019-04-06T19:34:53.101Z,85.77
2019-04-06T19:39:56.947Z,104.13
2019-04-06T19:45:01.276Z,90.67
2019-04-06T19:50:08.294Z,106.87
2019-04-06T19:55:12.674Z,114.53
2019-04-06T20:00:16.912Z,116.67
2019-04-06T20:05:21.002Z,107.27
2019-04-06T20:10:24.832Z,115.47
2019-04-06T20:15:28.782Z,95.67
2019-04-06T20:20:33.035Z,83.03
2019-04-06T20:25:37.375Z,74.03
2019-04-06T20:30:41.374Z,92.27
2019-04-06T20:35:45.508Z,144.77
2019-04-06T20:40:49.442Z,129.17
2019-04-06T20:45:53.468Z,131.40
2019-04-06T20:50:57.295Z,119.00
2019-04-06T20:56:01.129Z,94.57
2019-04-06T21:01:05.264Z,105.37
2019-04-06T21:06:09.396Z,125.60
2019-04-06T21:11:13.858Z,119.53
2019-04-06T21:16:17.973Z,100.57
2019-04-06T21:21:22.077Z,88.40
2019-04-06T21:26:26.290Z,81.03
2019-04-06T21:31:30.655Z,82.40
2019-04-06T21:36:35.105Z,90.57
2019-04-06T21:41:39.612Z,90.17
2019-04-06T21:46:43.709Z,82.13
2019-04-06T21:51:48.021Z,72.50
2019-04-06T21:56:52.586Z,85.17
2019-04-06T22:01:56.902Z,65.23
2019-04-06T22:07:01.141Z,56.47
2019-04-06T22:12:04.990Z,50.53
2019-04-06T22:17:10.056Z,44.57
2019-04-06T22:22:14.501Z,46.90
2019-04-06T22:27:18.631Z,50.50
2019-04-06T22:32:22.456Z,58.90
2019-04-06T22:37:26.301Z,68.47
2019-04-06T22:42:30.483Z,94.70
2019-04-06T22:47:34.746Z,67.87
2019-04-06T22:52:38.686Z,78.07
2019-04-06T22:57:42.822Z,75.53
2019-04-06T23:03:04.631Z,48.77
2019-04-06T23:08:09.253Z,38.73
2019-04-06T23:13:13.354Z,39.23
2019-04-06T23:18:17.177Z,35.83
2019-04-06T23:23:21.004Z,36.53
2019-04-06T23:28:24.831Z,37.30
2019-04-06T23:33:29.034Z,35.07
2019-04-06T23:38:33.107Z,41.57
2019-04-06T23:43:37.244Z,42.97
2019-04-06T23:48:41.069Z,40.47
2019-04-06T23:53:45.506Z,42.23
2019-04-06T23:58:49.800Z,43.07
